Time;durP1;ratioP1;P1;durP2;ratioP2;P2;SDS_P1;SDS_P2;PMS_P1;PMS_P2;Temp;Humidity;BMP_temperature;BMP_pressure;BME280_temperature;BME280_humidity;BME280_pressure;Samples;Min_cycle;Max_cycle;Signal;HPM_P1;HPM_P2
2024/03/13 00:02:12;;;;;;;11.30;5.40;;;;;;;10.32;92.64;101061.00;5076312;28;21053;-67
2024/03/13 00:04:43;;;;;;;13.80;5.40;;;;;;;10.31;92.60;101064.78;5076267;28;20444;-66
2024/03/13 00:07:11;;;;;;;9.90;5.40;;;;;;;10.25;92.74;101071.38;5076370;28;20472;-66
2024/03/13 00:09:44;;;;;;;15.47;5.37;;;;;;;10.27;92.92;101066.47;5076252;28;20938;-67
2024/03/13 00:12:11;;;;;;;12.80;4.80;;;;;;;10.26;92.94;101067.56;5076423;28;20468;-67
2024/03/13 00:14:38;;;;;;;11.30;4.30;;;;;;;10.25;93.25;101071.38;5076466;28;20437;-67
2024/03/13 00:17:05;;;;;;;9.83;4.50;;;;;;;10.25;93.10;101080.28;5076002;28;20442;-67
2024/03/13 00:19:33;;;;;;;9.67;3.80;;;;;;;10.21;93.24;101079.22;5075913;28;20445;-66
2024/03/13 00:22:00;;;;;;;11.97;4.93;;;;;;;10.18;93.12;101077.09;5076564;28;20453;-66
2024/03/13 00:24:27;;;;;;;8.50;4.17;;;;;;;10.19;92.79;101078.72;5075743;28;21020;-66
2024/03/13 00:26:57;;;;;;;11.43;4.30;;;;;;;10.15;93.25;101083.06;5075661;28;20910;-66
2024/03/13 00:29:25;;;;;;;12.17;4.87;;;;;;;10.11;93.71;101082.03;5076085;28;20449;-68
2024/03/13 00:31:52;;;;;;;12.27;5.73;;;;;;;10.08;93.59;101077.19;5075508;28;20925;-66
2024/03/13 00:34:19;;;;;;;11.67;4.17;;;;;;;10.01;93.99;101074.81;5075676;28;20941;-66
2024/03/13 00:36:48;;;;;;;10.23;4.20;;;;;;;10.03;94.15;101074.53;5075626;28;20440;-66
2024/03/13 00:39:16;;;;;;;12.53;5.13;;;;;;;10.06;93.81;101079.38;5075913;28;20437;-67
2024/03/13 00:41:43;;;;;;;11.97;4.77;;;;;;;10.05;93.81;101077.78;5075826;28;20498;-67
2024/03/13 00:44:10;;;;;;;10.10;4.80;;;;;;;10.06;93.19;101079.38;5076032;28;20426;-66
2024/03/13 00:46:37;;;;;;;8.60;4.47;;;;;;;10.05;92.64;101077.78;5075718;28;20484;-67
2024/03/13 00:49:04;;;;;;;11.70;4.60;;;;;;;10.04;92.17;101076.13;5075302;28;20929;-67
2024/03/13 00:51:31;;;;;;;17.87;5.60;;;;;;;10.06;92.82;101076.66;5075423;28;20925;-67
2024/03/13 00:54:04;;;;;;;10.17;4.70;;;;;;;10.06;93.22;101074.78;5075868;28;20462;-66
2024/03/13 00:56:31;;;;;;;10.37;4.53;;;;;;;10.08;93.25;101077.19;5075160;28;20483;-66
2024/03/13 00:58:58;;;;;;;16.70;6.10;;;;;;;10.09;93.18;101078.78;5075583;28;20429;-66
2024/03/13 01:01:25;;;;;;;14.10;4.60;;;;;;;10.04;93.41;101071.53;5075447;28;20441;-66
2024/03/13 01:03:57;;;;;;;8.47;3.73;;;;;;;10.04;93.55;101076.13;5075307;28;20523;-66
2024/03/13 01:06:28;;;;;;;10.97;5.10;;;;;;;10.04;93.83;101071.53;5075332;28;20491;-66
2024/03/13 01:08:55;;;;;;;14.10;5.43;;;;;;;10.07;93.84;101070.16;5075421;28;20437;-66
2024/03/13 01:11:24;;;;;;;14.27;5.70;;;;;;;10.09;93.69;101067.97;5074875;28;20441;-66
2024/03/13 01:13:51;;;;;;;9.33;3.60;;;;;;;10.05;93.85;101070.47;5075169;28;20531;-66
2024/03/13 01:16:18;;;;;;;12.30;5.00;;;;;;;9.99;94.13;101068.06;5075344;28;20437;-66
2024/03/13 01:18:44;;;;;;;9.67;4.30;;;;;;;10.01;94.13;101068.59;5075034;28;20438;-66
2024/03/13 01:21:12;;;;;;;14.73;4.57;;;;;;;10.02;94.40;101067.50;5075141;28;20526;-67
2024/03/13 01:23:40;;;;;;;10.67;4.90;;;;;;;10.02;94.44;101065.59;5074934;28;20953;-66
2024/03/13 01:26:07;;;;;;;9.47;4.20;;;;;;;10.01;94.78;101066.72;5088448;22;20588;-70
2024/03/13 01:28:36;;;;;;;10.83;4.43;;;;;;;10.02;95.09;101062.09;5074590;28;20537;-70
2024/03/13 01:31:06;;;;;;;12.90;4.70;;;;;;;9.95;95.30;101064.31;5074544;28;20503;-71
2024/03/13 01:33:32;;;;;;;11.03;3.80;;;;;;;9.92;95.30;101060.28;5074429;28;20465;-71
2024/03/13 01:35:59;;;;;;;9.53;5.10;;;;;;;9.95;95.33;101061.63;5074540;28;20432;-71
2024/03/13 01:38:25;;;;;;;6.67;3.50;;;;;;;9.99;95.49;101062.66;5074593;28;20495;-69
2024/03/13 01:57:56;;;;;;;8.47;3.37;;;;;;;9.70;92.73;101066.16;5014826;28;20442;-70
2024/03/13 02:03:09;;;;;;;8.87;3.90;;;;;;;9.62;92.96;101058.66;5073807;28;20461;-70
2024/03/13 02:05:36;;;;;;;9.53;4.67;;;;;;;9.61;93.09;101057.03;5073988;28;20934;-70
2024/03/13 02:08:04;;;;;;;11.87;4.30;;;;;;;9.63;93.49;101059.47;5073962;28;20441;-70
2024/03/13 02:10:31;;;;;;;9.87;4.10;;;;;;;9.59;94.83;101051.91;5073476;28;20889;-70
2024/03/13 02:13:05;;;;;;;12.33;3.90;;;;;;;9.60;95.40;101055.41;5073719;28;20548;-70
2024/03/13 02:15:33;;;;;;;7.50;3.43;;;;;;;9.63;95.65;101052.16;5073762;28;20905;-70
2024/03/13 02:18:00;;;;;;;7.70;4.10;;;;;;;9.64;96.11;101058.38;5073837;28;20531;-70
2024/03/13 02:20:28;;;;;;;9.87;5.20;;;;;;;9.63;96.50;101059.47;5073722;28;20437;-70
2024/03/13 02:23:02;;;;;;;17.83;5.20;;;;;;;9.57;96.98;101061.41;5073644;28;20544;-70
2024/03/13 02:25:31;;;;;;;8.77;4.00;;;;;;;9.52;97.77;101059.53;5073414;28;20453;-70
2024/03/13 02:27:59;;;;;;;6.73;3.53;;;;;;;9.56;97.64;101051.66;5039832;28;20485;-70
2024/03/13 02:30:26;;;;;;;9.50;4.23;;;;;;;9.50;97.61;101060.91;5039555;28;20517;-70
2024/03/13 02:32:53;;;;;;;11.87;5.03;;;;;;;9.50;98.08;101060.91;5038904;28;20491;-70
2024/03/13 02:35:20;;;;;;;11.67;4.20;;;;;;;9.53;98.15;101060.34;5039385;28;20499;-70
2024/03/13 02:37:46;;;;;;;7.97;3.67;;;;;;;9.53;98.18;101060.34;5038988;28;20819;-70
2024/03/13 02:40:16;;;;;;;12.07;4.90;;;;;;;9.46;98.12;101052.53;5038956;28;20495;-70
2024/03/13 02:42:43;;;;;;;12.20;4.80;;;;;;;9.47;98.35;101056.84;5039774;28;20458;-70
2024/03/13 02:45:12;;;;;;;13.73;6.07;;;;;;;9.47;97.89;101066.88;5038884;28;20540;-70
2024/03/13 02:47:39;;;;;;;11.40;4.60;;;;;;;9.47;98.19;101064.16;5039755;28;20542;-70
2024/03/13 02:50:09;;;;;;;11.77;4.50;;;;;;;9.42;98.35;101058.78;5039047;28;20437;-70
2024/03/13 02:52:36;;;;;;;14.70;5.10;;;;;;;9.35;98.19;101053.72;5039197;28;20468;-70
2024/03/13 02:55:02;;;;;;;9.27;3.90;;;;;;;9.27;97.88;101057.81;5038834;28;20473;-70
2024/03/13 02:57:29;;;;;;;12.30;5.10;;;;;;;9.26;97.50;101053.50;5039022;28;20524;-70
2024/03/13 02:59:56;;;;;;;8.97;3.93;;;;;;;9.20;97.40;101062.72;5039014;28;20524;-70
2024/03/13 03:02:22;;;;;;;16.87;6.20;;;;;;;9.16;96.61;101063.56;5039009;28;20540;-70
2024/03/13 03:04:49;;;;;;;9.60;3.60;;;;;;;9.05;96.53;101065.53;5039065;28;20444;-69
2024/03/13 03:07:16;;;;;;;16.73;6.27;;;;;;;9.03;96.55;101068.50;5038953;28;20485;-69
2024/03/13 03:09:42;;;;;;;9.13;4.27;;;;;;;8.99;96.69;101064.75;5038953;28;20469;-69
2024/03/13 03:12:09;;;;;;;11.17;4.80;;;;;;;8.93;96.78;101065.84;5038843;28;20537;-69
2024/03/13 03:14:36;;;;;;;20.77;6.00;;;;;;;8.91;97.06;101061.81;5038779;28;20520;-70
2024/03/13 03:17:03;;;;;;;18.13;6.20;;;;;;;8.81;98.50;101066.19;5038937;28;20437;-70
2024/03/13 03:19:30;;;;;;;12.53;4.80;;;;;;;8.79;99.08;101068.34;5038870;28;20612;-70
2024/03/13 03:21:57;;;;;;;9.70;4.13;;;;;;;8.83;99.19;101068.59;5038888;28;20484;-70
2024/03/13 03:24:23;;;;;;;11.67;5.03;;;;;;;8.82;99.66;101077.78;5038781;28;20520;-68
2024/03/13 03:26:50;;;;;;;10.97;4.20;;;;;;;8.77;99.45;101078.63;5038847;28;20465;-70
2024/03/13 03:29:18;;;;;;;10.60;4.40;;;;;;;8.65;100.00;101075.44;5038854;28;20448;-70
2024/03/13 03:31:44;;;;;;;8.83;4.13;;;;;;;8.64;99.72;101064.91;5038853;28;20444;-70
2024/03/13 03:34:12;;;;;;;8.27;4.50;;;;;;;8.59;99.82;101063.84;5038797;28;20437;-70
2024/03/13 03:36:40;;;;;;;15.10;4.23;;;;;;;8.50;100.00;101064.66;5038992;28;20496;-70
2024/03/13 03:39:10;;;;;;;8.27;3.60;;;;;;;8.41;100.00;101060.91;5038758;28;20442;-70
2024/03/13 03:41:37;;;;;;;7.13;3.70;;;;;;;8.24;100.00;101055.81;5039474;28;20898;-70
2024/03/13 03:44:04;;;;;;;8.97;3.33;;;;;;;8.21;100.00;101057.16;5038887;28;20461;-70
2024/03/13 03:46:30;;;;;;;9.77;4.50;;;;;;;8.17;100.00;101055.28;5038505;28;20481;-70
2024/03/13 03:48:58;;;;;;;8.23;3.67;;;;;;;8.13;100.00;101060.41;5038312;28;20523;-70
2024/03/13 03:51:24;;;;;;;10.37;3.40;;;;;;;8.09;100.00;101056.66;5038837;28;20450;-70
2024/03/13 03:53:51;;;;;;;13.20;5.10;;;;;;;7.87;100.00;101056.94;5038869;28;20457;-69
2024/03/13 03:56:18;;;;;;;13.20;5.87;;;;;;;7.73;100.00;101062.06;5038242;28;21005;-69
2024/03/13 03:58:45;;;;;;;8.77;3.10;;;;;;;7.68;100.00;101063.97;5038505;28;20873;-69
2024/03/13 04:01:12;;;;;;;7.70;3.47;;;;;;;7.56;100.00;101064.22;5038672;28;20810;-69
2024/03/13 04:03:41;;;;;;;9.03;3.47;;;;;;;7.51;100.00;101056.16;5038228;28;20503;-69
2024/03/13 04:06:08;;;;;;;7.80;3.17;;;;;;;7.48;100.00;101053.97;5041498;28;20443;-69
2024/03/13 04:08:34;;;;;;;11.23;4.13;;;;;;;7.41;100.00;101058.84;5041997;28;20437;-69
2024/03/13 04:11:01;;;;;;;11.50;4.23;;;;;;;7.27;100.00;101058.56;5041878;28;20456;-69
2024/03/13 04:13:28;;;;;;;11.33;3.00;;;;;;;7.20;100.00;101064.19;5041585;28;20886;-69
2024/03/13 04:15:56;;;;;;;7.43;3.30;;;;;;;7.15;100.00;101061.50;5041771;28;20473;-69
2024/03/13 04:18:22;;;;;;;7.90;3.23;;;;;;;7.13;100.00;101062.81;5041751;28;20492;-69
2024/03/13 04:20:50;;;;;;;14.07;4.20;;;;;;;7.07;100.00;101062.00;5041836;28;20465;-69
2024/03/13 04:23:17;;;;;;;8.17;2.80;;;;;;;6.99;100.00;101070.59;5042072;28;20564;-69
2024/03/13 04:25:44;;;;;;;8.07;2.70;;;;;;;6.91;100.00;101065.75;5041334;28;20492;-69
2024/03/13 04:28:11;;;;;;;5.57;2.87;;;;;;;6.82;100.00;101074.31;5041598;28;20576;-69
2024/03/13 04:30:40;;;;;;;10.10;4.50;;;;;;;6.79;100.00;101071.34;5041750;28;20441;-69
2024/03/13 04:33:07;;;;;;;5.73;3.10;;;;;;;6.73;100.00;101073.22;5042169;28;20457;-69
2024/03/13 04:35:34;;;;;;;5.87;2.50;;;;;;;6.69;100.00;101074.81;5041139;28;21021;-69
2024/03/13 04:38:00;;;;;;;7.17;3.40;;;;;;;6.61;100.00;101075.31;5041441;28;20441;-69
2024/03/13 04:40:27;;;;;;;15.23;4.40;;;;;;;6.58;100.00;101062.38;5041439;28;20445;-69
2024/03/13 04:42:54;;;;;;;9.80;3.83;;;;;;;6.48;100.00;101075.78;5041204;28;20497;-70
2024/03/13 04:45:19;;;;;;;11.27;3.90;;;;;;;6.48;100.00;101070.41;5040938;28;21000;-70
2024/03/13 04:47:46;;;;;;;10.67;3.47;;;;;;;6.41;100.00;101064.44;5041114;28;20473;-71
2024/03/13 04:50:13;;;;;;;10.40;4.00;;;;;;;6.36;100.00;101064.41;5041215;28;20203;-71
2024/03/13 04:52:39;;;;;;;7.57;3.17;;;;;;;6.38;100.00;101073.06;5041086;28;20461;-71
2024/03/13 04:55:05;;;;;;;9.10;2.90;;;;;;;6.39;100.00;101069.28;5041109;28;20441;-71
2024/03/13 04:57:32;;;;;;;5.00;2.23;;;;;;;6.25;100.00;101074.31;5040941;28;20434;-71
2024/03/13 04:59:59;;;;;;;6.97;3.13;;;;;;;6.23;100.00;101071.06;5040912;28;20532;-71
2024/03/13 05:02:26;;;;;;;9.20;4.23;;;;;;;6.18;100.00;101069.16;5040978;28;20461;-70
2024/03/13 05:04:53;;;;;;;4.40;2.27;;;;;;;6.15;100.00;101074.22;5040623;28;20445;-70
2024/03/13 05:07:22;;;;;;;9.33;3.50;;;;;;;6.01;100.00;101068.50;5040955;28;20485;-70
2024/03/13 05:09:49;;;;;;;8.00;3.30;;;;;;;5.99;100.00;101076.03;5041262;28;20445;-70
2024/03/13 05:12:16;;;;;;;5.10;2.93;;;;;;;5.89;100.00;101075.91;5041043;28;21014;-70
2024/03/13 05:14:43;;;;;;;7.90;2.90;;;;;;;5.84;100.00;101073.97;5040805;28;20517;-70
2024/03/13 05:17:15;;;;;;;6.80;2.30;;;;;;;5.73;99.43;101081.16;5039847;28;20512;-69
2024/03/13 05:19:42;;;;;;;6.80;2.67;;;;;;;5.68;98.44;101075.75;5042212;28;20788;-70
2024/03/13 05:22:09;;;;;;;5.67;3.00;;;;;;;5.67;98.61;101084.09;5040280;28;20911;-70
2024/03/13 05:24:36;;;;;;;10.93;3.40;;;;;;;5.62;98.74;101081.31;5040415;28;20447;-70
2024/03/13 05:27:02;;;;;;;11.33;3.63;;;;;;;5.56;98.51;101083.97;5040164;28;20508;-70
2024/03/13 05:29:29;;;;;;;7.27;3.27;;;;;;;5.51;98.89;101075.06;5040639;28;20520;-70
2024/03/13 05:31:56;;;;;;;6.77;3.07;;;;;;;5.40;99.37;101078.72;5040354;28;20865;-70
2024/03/13 05:34:23;;;;;;;6.40;3.23;;;;;;;5.35;99.81;101084.03;5040373;28;20473;-70
2024/03/13 05:36:49;;;;;;;9.10;3.93;;;;;;;5.42;100.00;101085.47;5040272;28;20520;-70
2024/03/13 05:39:17;;;;;;;9.13;4.33;;;;;;;5.46;100.00;101085.78;5039935;28;20528;-71
2024/03/13 05:41:45;;;;;;;11.53;3.80;;;;;;;5.46;100.00;101093.81;5040353;28;20510;-70
2024/03/13 05:44:12;;;;;;;8.13;3.60;;;;;;;5.44;100.00;101095.94;5040540;28;20441;-70
2024/03/13 05:46:39;;;;;;;6.43;3.23;;;;;;;5.40;100.00;101102.88;5040409;28;20448;-70
2024/03/13 05:49:06;;;;;;;11.73;3.60;;;;;;;5.42;100.00;101104.25;5039876;28;20955;-70
2024/03/13 05:51:34;;;;;;;8.03;3.93;;;;;;;5.46;100.00;101099.19;5040022;28;20433;-70
2024/03/13 05:54:02;;;;;;;3.50;2.00;;;;;;;5.52;100.00;101098.16;5040525;28;20466;-70
2024/03/13 05:56:29;;;;;;;6.57;2.97;;;;;;;5.51;100.00;101092.00;5040182;28;20544;-70
2024/03/13 05:58:55;;;;;;;9.17;3.77;;;;;;;5.46;100.00;101100.00;5039907;28;20465;-73
2024/03/13 06:01:26;;;;;;;11.83;4.00;;;;;;;5.39;100.00;101101.25;5039846;28;20445;-70
2024/03/13 06:03:53;;;;;;;8.13;2.83;;;;;;;5.44;100.00;101096.75;5040994;28;20457;-70
2024/03/13 06:06:20;;;;;;;5.53;2.83;;;;;;;5.40;100.00;101103.72;5039375;28;20887;-70
2024/03/13 06:08:47;;;;;;;7.03;4.40;;;;;;;5.41;100.00;101101.84;5039733;28;20473;-70
2024/03/13 06:11:17;;;;;;;8.70;3.90;;;;;;;5.45;100.00;101098.38;5039640;28;20536;-70
2024/03/13 06:13:43;;;;;;;8.17;4.50;;;;;;;5.47;100.00;101104.31;5040253;28;20461;-70
2024/03/13 06:16:10;;;;;;;8.73;3.80;;;;;;;5.48;100.00;101108.59;5039221;28;20953;-70
2024/03/13 06:18:37;;;;;;;7.60;4.07;;;;;;;5.45;100.00;101108.31;5039193;28;20884;-70
2024/03/13 06:21:04;;;;;;;15.47;4.77;;;;;;;5.50;100.00;101111.06;5039147;28;21008;-70
2024/03/13 06:23:31;;;;;;;9.40;3.43;;;;;;;5.52;100.00;101114.28;5039346;28;20460;-70
2024/03/13 06:25:58;;;;;;;19.80;4.93;;;;;;;5.54;100.00;101115.69;5039059;28;20830;-70
2024/03/13 06:31:05;;;;;;;7.50;3.80;;;;;;;5.55;100.00;101122.66;5000489;28;20433;-70
2024/03/13 06:33:32;;;;;;;7.03;3.40;;;;;;;5.57;100.00;101119.72;5038872;28;21003;-70
2024/03/13 06:35:59;;;;;;;5.10;3.13;;;;;;;5.62;100.00;101119.75;5039357;28;20438;-70
2024/03/13 06:38:25;;;;;;;6.40;3.00;;;;;;;5.67;100.00;101125.19;5038927;28;20461;-69
2024/03/13 06:40:52;;;;;;;10.03;3.30;;;;;;;5.71;100.00;101123.63;5039199;28;20469;-69
2024/03/13 06:43:19;;;;;;;8.30;3.70;;;;;;;5.76;100.00;101126.34;5039134;28;20457;-69
2024/03/13 06:45:47;;;;;;;8.23;3.33;;;;;;;5.85;100.00;101118.63;5039120;28;20434;-69
2024/03/13 06:48:15;;;;;;;13.27;5.20;;;;;;;5.94;100.00;101121.69;5039572;28;20568;-69
2024/03/13 06:50:41;;;;;;;12.33;4.20;;;;;;;6.03;100.00;101123.66;5038992;28;20473;-69
2024/03/13 06:53:08;;;;;;;9.67;3.37;;;;;;;6.09;100.00;101121.81;5039080;28;20453;-70
2024/03/13 06:55:35;;;;;;;10.00;5.73;;;;;;;6.18;100.00;101127.50;5039053;28;20446;-70
2024/03/13 06:58:02;;;;;;;16.90;4.80;;;;;;;6.29;100.00;101135.41;5038927;28;20537;-70
2024/03/13 07:00:28;;;;;;;9.70;3.80;;;;;;;6.37;100.00;101125.22;5038736;28;20941;-70
2024/03/13 07:02:56;;;;;;;9.07;4.00;;;;;;;6.57;100.00;101133.41;5038830;28;20461;-70
2024/03/13 07:05:23;;;;;;;10.30;4.47;;;;;;;6.70;100.00;101132.97;5039354;28;20437;-72
2024/03/13 07:07:52;;;;;;;13.93;4.97;;;;;;;6.81;100.00;101128.41;5038995;28;20487;-71
2024/03/13 07:10:19;;;;;;;11.20;4.87;;;;;;;6.95;100.00;101136.81;5039452;28;20445;-69
2024/03/13 07:12:46;;;;;;;12.23;5.80;;;;;;;7.09;100.00;101132.59;5038934;28;20878;-68
2024/03/13 07:15:13;;;;;;;12.20;4.33;;;;;;;7.22;100.00;101137.50;5038914;28;20473;-68
2024/03/13 07:17:39;;;;;;;10.77;4.23;;;;;;;7.42;100.00;101138.59;5038689;28;20536;-68
2024/03/13 07:20:09;;;;;;;10.07;3.87;;;;;;;7.59;100.00;101139.19;5038788;28;20445;-68
2024/03/13 07:22:37;;;;;;;9.23;4.13;;;;;;;7.71;100.00;101150.53;5039677;28;21023;-68
2024/03/13 07:25:06;;;;;;;12.40;4.30;;;;;;;7.83;100.00;101148.41;5042896;23;20499;-69
2024/03/13 07:27:32;;;;;;;13.00;5.70;;;;;;;7.96;100.00;101146.22;4999798;28;20490;-67
2024/03/13 07:29:59;;;;;;;13.40;4.27;;;;;;;8.08;100.00;101152.97;4999056;28;20439;-67
2024/03/13 07:32:26;;;;;;;20.27;5.93;;;;;;;8.16;100.00;101150.81;4999092;28;20465;-67
2024/03/13 07:34:53;;;;;;;12.23;4.03;;;;;;;8.27;100.00;101152.41;5015617;28;20497;-69
2024/03/13 07:37:19;;;;;;;12.13;4.80;;;;;;;8.34;100.00;101151.06;5015247;28;20791;-68
2024/03/13 07:39:46;;;;;;;17.57;6.30;;;;;;;8.40;100.00;101153.78;5016245;28;20521;-68
2024/03/13 07:42:13;;;;;;;14.70;6.20;;;;;;;8.52;100.00;101157.00;5018851;28;20978;-68
2024/03/13 07:44:40;;;;;;;10.90;4.70;;;;;;;8.65;100.00;101156.44;5019243;28;20871;-69
2024/03/13 07:47:08;;;;;;;10.07;5.57;;;;;;;8.70;100.00;101161.81;5019248;28;20458;-68
2024/03/13 07:49:35;;;;;;;17.73;6.10;;;;;;;8.78;100.00;101158.56;5019278;28;20483;-68
2024/03/13 07:52:02;;;;;;;13.27;5.90;;;;;;;8.86;100.00;101154.50;5018928;28;20435;-69
2024/03/13 07:54:29;;;;;;;20.50;5.03;;;;;;;8.96;100.00;101162.56;5019111;28;20451;-69
2024/03/13 07:56:56;;;;;;;20.53;6.40;;;;;;;9.03;99.39;101154.16;5019240;28;20461;-68
2024/03/13 07:59:25;;;;;;;25.00;7.40;;;;;;;9.10;98.92;101170.88;5019139;28;20561;-68
2024/03/13 08:01:52;;;;;;;15.83;6.30;;;;;;;9.10;98.45;101165.47;5019289;28;20501;-67
2024/03/13 08:04:19;;;;;;;14.53;5.43;;;;;;;9.20;98.55;101170.84;5018899;28;20502;-68
2024/03/13 08:06:46;;;;;;;14.67;6.53;;;;;;;9.28;98.46;101174.84;5018496;28;20943;-68
2024/03/13 08:09:12;;;;;;;21.93;8.87;;;;;;;9.35;98.19;101173.47;5018684;28;20479;-67
2024/03/13 08:11:39;;;;;;;18.67;6.90;;;;;;;9.45;97.59;101172.63;5018283;28;20522;-66
2024/03/13 08:14:06;;;;;;;19.83;7.00;;;;;;;9.53;97.24;101173.94;5018615;28;20545;-66
2024/03/13 08:16:33;;;;;;;14.17;5.07;;;;;;;9.63;96.73;101173.84;5018384;28;20497;-66
2024/03/13 08:19:00;;;;;;;12.50;6.20;;;;;;;9.68;96.53;101173.03;5018743;28;20443;-65
2024/03/13 08:21:27;;;;;;;15.10;7.70;;;;;;;9.74;95.85;101175.44;5018386;28;20470;-65
2024/03/13 08:23:53;;;;;;;28.47;7.60;;;;;;;9.79;95.54;101175.38;5018075;28;20553;-66
2024/03/13 08:26:20;;;;;;;16.10;7.13;;;;;;;9.83;95.61;101165.63;5018072;28;20497;-66
2024/03/13 08:28:47;;;;;;;19.20;6.50;;;;;;;9.90;95.67;101169.91;5018283;28;20483;-66
2024/03/13 08:31:16;;;;;;;14.47;7.47;;;;;;;10.02;95.00;101165.75;5018273;28;20454;-66
2024/03/13 08:33:43;;;;;;;13.30;5.60;;;;;;;10.14;93.06;101165.38;5018109;28;20464;-66
2024/03/13 08:36:10;;;;;;;14.27;6.60;;;;;;;10.15;92.25;101169.69;5018377;28;20442;-66
2024/03/13 08:38:36;;;;;;;20.50;8.27;;;;;;;10.21;91.47;101168.56;5018059;28;20446;-66
2024/03/13 08:41:03;;;;;;;23.53;6.63;;;;;;;10.27;90.99;101158.50;5018004;28;20442;-66
2024/03/13 08:43:30;;;;;;;19.63;6.80;;;;;;;10.31;90.38;101165.81;5018033;28;20495;-66
2024/03/13 08:45:56;;;;;;;13.33;6.23;;;;;;;10.34;88.22;101167.94;5017760;28;20522;-66
2024/03/13 08:48:25;;;;;;;16.20;6.80;;;;;;;10.46;87.91;101166.75;5017997;28;20479;-66
2024/03/13 08:50:52;;;;;;;24.50;8.70;;;;;;;10.60;87.21;101164.97;5018021;28;20470;-67
2024/03/13 08:53:19;;;;;;;15.27;6.70;;;;;;;10.68;87.38;101177.09;5017940;28;20466;-66
2024/03/13 08:55:46;;;;;;;18.53;6.00;;;;;;;10.75;86.74;101172.94;5017588;28;20500;-66
2024/03/13 08:58:13;;;;;;;15.80;6.90;;;;;;;10.78;85.72;101172.38;5017717;28;20903;-66
2024/03/13 09:00:42;;;;;;;16.10;6.90;;;;;;;10.83;84.73;101158.75;5017785;28;20465;-66
2024/03/13 09:03:09;;;;;;;15.50;7.37;;;;;;;10.95;83.84;101169.19;5017802;28;20925;-66
2024/03/13 09:05:36;;;;;;;22.50;6.60;;;;;;;10.95;82.51;101154.84;5017496;28;20431;-67
2024/03/13 09:08:03;;;;;;;18.63;7.43;;;;;;;11.01;83.87;101161.81;5017399;28;20483;-66
2024/03/13 09:10:30;;;;;;;14.20;6.40;;;;;;;11.08;83.96;101160.38;5017821;28;20509;-66
2024/03/13 09:12:57;;;;;;;17.20;7.73;;;;;;;11.15;84.07;101160.00;5017637;28;20498;-66
2024/03/13 09:15:24;;;;;;;17.93;7.23;;;;;;;11.23;83.08;101166.69;5017474;28;20863;-67
2024/03/13 09:17:51;;;;;;;13.83;4.90;;;;;;;11.32;82.53;101176.59;5017297;28;20442;-66
2024/03/13 09:20:18;;;;;;;18.00;6.80;;;;;;;11.40;82.04;101167.00;5017417;28;20478;-65
2024/03/13 09:22:45;;;;;;;12.00;5.33;;;;;;;11.46;80.48;101176.69;5017305;28;20463;-65
2024/03/13 09:25:12;;;;;;;17.47;6.30;;;;;;;11.53;79.65;101166.28;5017535;28;20455;-66
2024/03/13 09:27:39;;;;;;;14.83;5.20;;;;;;;11.60;79.68;101160.50;5017135;28;20451;-65
2024/03/13 09:30:07;;;;;;;14.73;5.93;;;;;;;11.71;78.82;101159.25;5016981;28;20487;-66
2024/03/13 09:32:34;;;;;;;14.70;5.10;;;;;;;11.81;76.76;101156.38;5017280;28;20466;-65
2024/03/13 09:35:02;;;;;;;15.13;6.30;;;;;;;11.88;73.05;101164.19;5017067;28;20447;-66
2024/03/13 09:37:29;;;;;;;18.57;5.07;;;;;;;11.90;74.37;101155.72;5017259;28;20527;-65
2024/03/13 09:39:55;;;;;;;12.17;5.63;;;;;;;11.95;75.16;101155.66;5017099;28;20525;-65
2024/03/13 09:42:23;;;;;;;12.37;4.50;;;;;;;12.08;74.90;101155.69;5016773;28;21009;-66
2024/03/13 09:44:50;;;;;;;14.60;5.50;;;;;;;12.15;73.95;101154.53;5017107;28;20458;-65
2024/03/13 09:47:16;;;;;;;12.27;5.70;;;;;;;12.20;72.68;101146.28;5017003;28;20449;-65
2024/03/13 09:49:43;;;;;;;13.03;5.30;;;;;;;12.28;72.06;101153.75;5016600;28;20977;-65
2024/03/13 09:52:12;;;;;;;13.97;5.40;;;;;;;12.29;71.91;101150.72;5016809;28;20463;-66
2024/03/13 09:54:39;;;;;;;10.07;4.90;;;;;;;12.33;72.12;101150.94;5017074;28;20448;-66
2024/03/13 09:57:06;;;;;;;14.63;5.63;;;;;;;12.36;72.93;101156.59;5016860;28;20812;-65
2024/03/13 09:59:33;;;;;;;14.97;5.53;;;;;;;12.54;72.65;101160.34;5016433;28;20441;-65
2024/03/13 10:01:59;;;;;;;12.70;5.40;;;;;;;12.67;71.59;101166.91;5016097;28;20524;-65
2024/03/13 10:04:26;;;;;;;14.43;5.40;;;;;;;12.75;70.58;101168.94;5016084;28;20442;-65
2024/03/13 10:06:56;;;;;;;11.70;5.10;;;;;;;12.91;69.26;101161.25;5016628;28;20435;-65
2024/03/13 10:09:25;;;;;;;13.50;4.37;;;;;;;12.97;67.61;101165.50;5017044;28;20463;-65
2024/03/13 10:11:52;;;;;;;15.57;4.97;;;;;;;13.11;66.94;101160.88;5016803;28;20474;-65
2024/03/13 10:14:19;;;;;;;13.30;5.27;;;;;;;13.19;71.10;101151.16;5016537;28;20450;-65
2024/03/13 10:16:46;;;;;;;7.87;4.03;;;;;;;13.33;69.85;101149.28;5016548;28;20530;-65
2024/03/13 10:19:13;;;;;;;12.07;5.00;;;;;;;13.48;67.16;101150.03;5016451;28;20446;-65
2024/03/13 10:21:41;;;;;;;13.40;4.87;;;;;;;13.58;65.71;101136.19;5016044;28;20443;-65
2024/03/13 10:24:07;;;;;;;10.80;4.30;;;;;;;13.66;66.85;101135.47;5016409;28;20455;-66
2024/03/13 10:26:38;;;;;;;12.30;4.30;;;;;;;13.73;65.63;101122.25;5015770;28;20459;-65
2024/03/13 10:29:06;;;;;;;12.00;4.07;;;;;;;13.83;64.83;101140.25;5016416;28;20476;-65
2024/03/13 10:31:32;;;;;;;13.97;4.93;;;;;;;13.82;63.22;101136.72;5016149;28;20947;-65
2024/03/13 10:34:00;;;;;;;10.90;5.00;;;;;;;13.75;63.15;101130.91;5015807;28;20459;-65
2024/03/13 10:36:27;;;;;;;12.17;4.83;;;;;;;13.64;63.64;101129.53;5016554;28;20450;-65
2024/03/13 10:38:53;;;;;;;19.50;5.10;;;;;;;13.62;63.83;101126.31;5015820;28;20442;-65
2024/03/13 10:41:20;;;;;;;11.53;4.60;;;;;;;13.69;63.27;101132.13;5016184;28;20440;-65
2024/03/13 10:43:47;;;;;;;16.00;5.53;;;;;;;13.63;64.35;101134.19;5016312;28;20469;-68
2024/03/13 10:46:14;;;;;;;12.83;5.07;;;;;;;13.67;64.01;101134.34;5016107;28;20471;-66
2024/03/13 10:48:41;;;;;;;10.80;4.80;;;;;;;13.64;63.22;101129.53;5015714;28;20933;-68
2024/03/13 10:51:11;;;;;;;11.07;5.47;;;;;;;13.58;64.79;101125.31;5016013;28;20451;-66
2024/03/13 10:53:37;;;;;;;11.40;4.03;;;;;;;13.60;65.00;101118.47;5015940;28;20494;-65
2024/03/13 10:56:04;;;;;;;11.07;5.57;;;;;;;13.89;64.60;101131.63;5015401;28;20470;-65
2024/03/13 10:58:33;;;;;;;7.47;3.73;;;;;;;14.10;64.06;101129.22;5015811;28;20458;-65
2024/03/13 11:01:00;;;;;;;10.57;4.53;;;;;;;14.37;60.96;101136.41;5015725;28;20451;-65
2024/03/13 11:03:27;;;;;;;16.63;5.27;;;;;;;14.38;59.64;101124.38;5015386;28;20465;-65
2024/03/13 11:05:54;;;;;;;9.20;4.87;;;;;;;14.41;62.45;101124.91;5015284;28;20819;-65
2024/03/13 11:08:21;;;;;;;10.93;4.73;;;;;;;14.71;60.77;101129.56;5015100;28;20462;-65
2024/03/13 11:10:48;;;;;;;12.17;4.90;;;;;;;15.02;59.72;101117.78;5015070;28;20442;-66
2024/03/13 11:13:15;;;;;;;8.47;4.57;;;;;;;15.21;58.63;101112.81;5015253;28;20463;-65
2024/03/13 11:15:42;;;;;;;8.77;4.00;;;;;;;15.32;56.59;101118.78;5017612;28;20434;-66
2024/03/13 11:18:10;;;;;;;10.27;4.30;;;;;;;15.30;57.60;101116.34;5018925;28;20931;-65
2024/03/13 11:20:38;;;;;;;10.70;5.00;;;;;;;15.26;58.67;101115.38;5019553;28;20778;-65
2024/03/13 11:23:05;;;;;;;17.47;5.30;;;;;;;15.32;58.31;101113.31;5019360;28;20462;-65
2024/03/13 11:25:32;;;;;;;18.50;5.17;;;;;;;15.55;57.32;101113.97;5018920;28;20554;-65
2024/03/13 11:27:58;;;;;;;8.30;4.10;;;;;;;15.69;56.52;101111.91;5018731;28;20556;-65
2024/03/13 11:30:25;;;;;;;12.60;5.57;;;;;;;15.89;55.14;101113.97;5019105;28;20487;-65
2024/03/13 11:32:52;;;;;;;12.20;4.60;;;;;;;15.99;56.92;101118.31;5019069;28;20476;-65
2024/03/13 11:35:19;;;;;;;8.97;4.20;;;;;;;16.42;55.14;101103.69;5019449;28;20481;-65
2024/03/13 11:37:45;;;;;;;8.10;4.13;;;;;;;16.88;53.86;101111.09;5019046;28;20485;-66
2024/03/13 11:40:12;;;;;;;9.03;4.80;;;;;;;17.04;51.17;101118.72;5018960;28;20441;-65
2024/03/13 11:42:40;;;;;;;11.43;4.73;;;;;;;17.19;52.84;101115.41;5018779;28;20896;-65
2024/03/13 11:45:15;;;;;;;9.80;4.50;;;;;;;17.38;50.55;101109.47;5018857;28;20443;-66